createdAt,value
2023-02-14T00:01:10.626Z,8.38
2023-02-14T00:03:39.417Z,8.45
2023-02-14T00:06:07.960Z,8.39
2023-02-14T00:08:35.791Z,8.24
2023-02-14T00:11:04.309Z,8.20
2023-02-14T00:13:31.674Z,8.20
2023-02-14T00:15:59.037Z,8.21
2023-02-14T00:18:45.386Z,8.35
2023-02-14T00:21:12.717Z,8.20
2023-02-14T00:23:40.074Z,8.28
2023-02-14T00:26:14.193Z,8.27
2023-02-14T00:28:43.398Z,8.13
2023-02-14T00:31:11.151Z,8.04
2023-02-14T00:33:38.572Z,8.20
2023-02-14T00:36:07.533Z,8.20
2023-02-14T00:38:35.238Z,8.08
2023-02-14T00:41:03.210Z,8.08
2023-02-14T00:43:30.796Z,7.98
2023-02-14T00:45:58.106Z,7.92
2023-02-14T00:48:25.660Z,7.93
2023-02-14T00:50:52.986Z,7.82
2023-02-14T00:53:20.501Z,7.88
2023-02-14T00:55:47.848Z,7.85
2023-02-14T00:58:15.564Z,7.79
2023-02-14T01:00:42.885Z,7.67
2023-02-14T01:03:10.246Z,7.66
2023-02-14T01:05:37.512Z,7.66
2023-02-14T01:08:05.419Z,7.61
2023-02-14T01:10:32.695Z,7.69
2023-02-14T01:13:00.004Z,7.76
2023-02-14T01:15:28.718Z,7.69
2023-02-14T01:17:56.145Z,7.69
2023-02-14T01:20:23.376Z,7.57
2023-02-14T01:22:50.646Z,7.59
2023-02-14T01:25:18.163Z,7.58
2023-02-14T01:27:45.501Z,7.53
2023-02-14T01:30:14.551Z,7.58
2023-02-14T01:32:42.474Z,7.65
2023-02-14T01:35:10.467Z,7.75
2023-02-14T01:37:37.797Z,7.66
2023-02-14T01:40:08.332Z,7.55
2023-02-14T01:42:36.246Z,7.61
2023-02-14T01:45:08.931Z,7.69
2023-02-14T01:47:39.277Z,7.66
2023-02-14T01:50:13.885Z,7.60
2023-02-14T01:52:47.965Z,7.49
2023-02-14T01:55:28.612Z,7.47
2023-02-14T01:58:01.542Z,7.34
2023-02-14T02:00:47.594Z,7.43
2023-02-14T02:03:16.808Z,7.46
2023-02-14T02:05:52.585Z,7.40
2023-02-14T02:08:20.414Z,7.33
2023-02-14T02:10:47.616Z,7.30
2023-02-14T02:13:18.047Z,7.24
2023-02-14T02:16:03.355Z,7.21
2023-02-14T02:19:17.275Z,7.28
2023-02-14T02:21:59.680Z,7.26
2023-02-14T02:24:30.003Z,7.32
2023-02-14T02:27:22.055Z,7.39
2023-02-14T02:30:25.152Z,7.24
2023-02-14T02:32:53.665Z,7.18
2023-02-14T02:35:42.015Z,7.23
2023-02-14T02:38:36.893Z,7.15
2023-02-14T02:41:18.573Z,7.13
2023-02-14T02:44:13.053Z,7.03
2023-02-14T02:46:55.665Z,6.98
2023-02-14T02:49:48.314Z,7.09
2023-02-14T02:52:41.642Z,7.23
2023-02-14T02:55:16.407Z,6.99
2023-02-14T02:57:44.473Z,7.13
2023-02-14T03:00:13.690Z,6.99
2023-02-14T03:03:03.753Z,6.99
2023-02-14T03:05:32.355Z,6.93
2023-02-14T03:07:59.780Z,7.04
2023-02-14T03:10:31.805Z,6.94
2023-02-14T03:13:36.778Z,6.94
2023-02-14T03:16:26.167Z,6.93
2023-02-14T03:20:00.471Z,6.87
2023-02-14T03:22:48.498Z,6.84
2023-02-14T03:25:32.288Z,6.91
2023-02-14T03:28:15.182Z,6.93
2023-02-14T03:30:48.548Z,6.88
2023-02-14T03:33:23.193Z,6.69
2023-02-14T03:35:55.249Z,6.72
2023-02-14T03:38:27.527Z,6.59
2023-02-14T03:41:01.935Z,6.31
2023-02-14T03:43:35.917Z,6.46
2023-02-14T03:46:03.272Z,6.54
2023-02-14T03:48:32.311Z,6.64
2023-02-14T03:51:00.657Z,6.79
2023-02-14T03:53:31.020Z,6.60
2023-02-14T03:56:13.390Z,6.30
2023-02-14T03:58:45.188Z,6.04
2023-02-14T04:01:36.170Z,6.20
2023-02-14T04:04:04.677Z,6.28
2023-02-14T04:06:31.969Z,6.24
2023-02-14T04:08:59.399Z,6.39
2023-02-14T04:11:27.270Z,6.31
2023-02-14T04:13:54.810Z,6.40
2023-02-14T04:16:22.147Z,6.43
2023-02-14T04:19:08.078Z,6.61
2023-02-14T04:21:35.375Z,6.51
2023-02-14T04:24:02.711Z,6.53
2023-02-14T04:26:30.129Z,6.34
2023-02-14T04:28:57.558Z,6.46
2023-02-14T04:31:24.971Z,6.49
2023-02-14T04:33:52.344Z,6.47
2023-02-14T04:36:19.686Z,6.48
2023-02-14T04:38:46.957Z,6.36
2023-02-14T04:41:14.316Z,6.36
2023-02-14T04:43:43.106Z,6.48
2023-02-14T04:46:10.574Z,6.54
2023-02-14T04:48:37.902Z,6.43
2023-02-14T04:51:05.359Z,6.46
2023-02-14T04:53:32.618Z,6.36
2023-02-14T04:56:00.002Z,6.36
2023-02-14T04:58:27.465Z,6.27
2023-02-14T05:00:54.809Z,5.96
2023-02-14T05:03:22.108Z,6.01
2023-02-14T05:05:49.501Z,6.22
2023-02-14T05:08:17.049Z,6.28
2023-02-14T05:10:44.326Z,6.32
2023-02-14T05:13:11.719Z,6.21
2023-02-14T05:15:38.960Z,6.17
2023-02-14T05:18:06.447Z,6.22
2023-02-14T05:20:34.223Z,6.25
2023-02-14T05:23:06.346Z,6.24
2023-02-14T05:25:34.356Z,6.11
2023-02-14T05:28:01.877Z,6.08
2023-02-14T05:30:30.339Z,6.01
2023-02-14T05:32:57.787Z,6.05
2023-02-14T05:35:25.202Z,6.05
2023-02-14T05:37:52.501Z,6.31
2023-02-14T05:40:19.918Z,6.20
2023-02-14T05:42:47.153Z,6.30
2023-02-14T05:45:14.713Z,6.30
2023-02-14T05:47:42.097Z,6.15
2023-02-14T05:50:09.525Z,6.08
2023-02-14T05:52:37.792Z,5.86
2023-02-14T05:55:05.632Z,5.77
2023-02-14T05:57:36.030Z,5.78
2023-02-14T06:00:06.540Z,5.58
2023-02-14T06:02:39.750Z,5.64
2023-02-14T06:05:07.712Z,5.39
2023-02-14T06:07:35.152Z,5.51
2023-02-14T06:10:02.488Z,5.46
2023-02-14T06:12:32.973Z,5.49
2023-02-14T06:15:00.357Z,5.46
2023-02-14T06:17:27.738Z,5.60
2023-02-14T06:19:54.995Z,5.56
2023-02-14T06:22:22.316Z,5.70
2023-02-14T06:24:50.014Z,5.56
2023-02-14T06:27:17.320Z,5.62
2023-02-14T06:29:44.683Z,5.64
2023-02-14T06:32:12.132Z,5.68
2023-02-14T06:34:40.918Z,5.71
2023-02-14T06:37:08.241Z,5.83
2023-02-14T06:39:35.593Z,5.86
2023-02-14T06:42:02.941Z,5.79
2023-02-14T06:44:30.446Z,5.85
2023-02-14T06:46:57.724Z,5.83
2023-02-14T06:49:25.158Z,6.03
2023-02-14T06:51:52.602Z,6.05
2023-02-14T06:54:19.886Z,6.15
2023-02-14T06:56:47.480Z,6.02
2023-02-14T06:59:14.825Z,5.70
2023-02-14T07:01:42.174Z,5.58
2023-02-14T07:04:09.676Z,5.70
2023-02-14T07:06:37.753Z,5.88
2023-02-14T07:09:05.574Z,5.88
2023-02-14T07:11:32.979Z,5.80
2023-02-14T07:14:00.296Z,5.56
2023-02-14T07:16:27.672Z,5.60
2023-02-14T07:18:54.987Z,5.68
2023-02-14T07:21:22.324Z,5.64
2023-02-14T07:23:50.195Z,5.99
2023-02-14T07:26:18.344Z,5.94
2023-02-14T07:28:46.712Z,5.99
2023-02-14T07:31:14.192Z,6.18
2023-02-14T07:33:41.817Z,6.11
2023-02-14T07:36:09.675Z,6.06
2023-02-14T07:38:37.269Z,6.00
2023-02-14T07:41:04.694Z,6.00
2023-02-14T07:43:34.490Z,6.03
2023-02-14T07:46:02.468Z,6.06
2023-02-14T07:48:31.953Z,6.14
2023-02-14T07:51:01.863Z,6.37
2023-02-14T07:53:29.272Z,6.41
2023-02-14T07:55:56.855Z,6.42
2023-02-14T07:58:24.141Z,6.25
2023-02-14T08:00:51.477Z,6.32
2023-02-14T08:03:19.134Z,6.63
2023-02-14T08:05:57.056Z,6.47
2023-02-14T08:08:28.908Z,6.71
2023-02-14T08:10:57.001Z,6.86
2023-02-14T08:13:24.345Z,6.93
2023-02-14T08:16:07.740Z,6.70
2023-02-14T08:18:37.942Z,6.92
2023-02-14T08:21:05.861Z,7.00
2023-02-14T08:23:33.879Z,6.72
2023-02-14T08:26:01.664Z,6.69
2023-02-14T08:28:29.253Z,6.68
2023-02-14T08:30:56.668Z,6.58
2023-02-14T08:33:24.057Z,6.67
2023-02-14T08:35:52.210Z,6.68
2023-02-14T08:38:19.599Z,6.64
2023-02-14T08:40:47.381Z,6.64
2023-02-14T08:43:15.349Z,6.63
2023-02-14T08:45:43.019Z,6.55
2023-02-14T08:48:12.241Z,6.68
2023-02-14T08:50:40.285Z,6.78
2023-02-14T08:53:12.257Z,6.82
2023-02-14T08:55:40.228Z,6.72
2023-02-14T08:58:07.928Z,6.84
2023-02-14T09:00:35.560Z,7.10
2023-02-14T09:03:03.032Z,7.10
2023-02-14T09:05:32.018Z,7.17
2023-02-14T09:07:59.674Z,7.39
2023-02-14T09:10:28.559Z,7.27
2023-02-14T09:12:58.560Z,7.23
2023-02-14T09:15:26.435Z,7.47
2023-02-14T09:17:53.743Z,7.29
2023-02-14T09:20:25.274Z,7.53
2023-02-14T09:22:55.860Z,7.60
2023-02-14T09:25:26.254Z,7.65
2023-02-14T09:27:53.694Z,7.93
2023-02-14T09:30:21.232Z,7.84
2023-02-14T09:32:48.887Z,7.96
2023-02-14T09:35:34.710Z,7.86
2023-02-14T09:38:18.310Z,7.84
2023-02-14T09:40:47.054Z,7.80
2023-02-14T09:43:24.691Z,7.73
2023-02-14T09:45:54.864Z,7.84
2023-02-14T09:48:32.470Z,7.94
2023-02-14T09:51:03.361Z,8.10
2023-02-14T09:53:35.092Z,7.95
2023-02-14T09:56:21.151Z,7.92
2023-02-14T09:59:07.368Z,7.94
2023-02-14T10:01:43.714Z,8.14
2023-02-14T10:04:23.018Z,8.21
2023-02-14T10:07:01.732Z,8.52
2023-02-14T10:09:43.095Z,8.74
2023-02-14T10:12:16.666Z,8.60
2023-02-14T10:14:44.114Z,8.77
2023-02-14T10:17:25.324Z,8.94
2023-02-14T10:19:56.649Z,9.05
2023-02-14T10:22:30.225Z,9.00
2023-02-14T10:25:14.425Z,9.03
2023-02-14T10:27:47.286Z,9.24
2023-02-14T10:30:21.573Z,9.33
2023-02-14T10:32:53.583Z,9.20
2023-02-14T10:35:44.116Z,9.20
2023-02-14T10:38:20.602Z,9.40
2023-02-14T10:41:10.151Z,9.41
2023-02-14T10:43:43.747Z,9.58
2023-02-14T10:46:21.268Z,9.67
2023-02-14T10:49:13.402Z,9.53
2023-02-14T10:51:51.232Z,9.64
2023-02-14T10:54:25.977Z,9.82
2023-02-14T10:56:58.699Z,9.78
2023-02-14T10:59:39.780Z,9.83
2023-02-14T11:02:11.155Z,9.86
2023-02-14T11:04:38.495Z,9.78
2023-02-14T11:07:13.081Z,10.05
2023-02-14T11:09:40.337Z,10.26
2023-02-14T11:12:08.724Z,10.20
2023-02-14T11:14:40.563Z,10.25
2023-02-14T11:17:28.153Z,10.49
2023-02-14T11:20:02.590Z,10.60
2023-02-14T11:22:31.282Z,10.33
2023-02-14T11:25:21.508Z,10.41
2023-02-14T11:28:00.994Z,10.35
2023-02-14T11:30:33.450Z,10.40
2023-02-14T11:33:01.109Z,10.68
2023-02-14T11:35:34.550Z,10.67
2023-02-14T11:38:06.704Z,10.64
2023-02-14T11:40:38.932Z,10.61
2023-02-14T11:43:14.622Z,10.64
2023-02-14T11:45:49.447Z,10.71
2023-02-14T11:48:31.434Z,10.64
2023-02-14T11:51:15.912Z,10.70
2023-02-14T11:53:56.343Z,10.90
2023-02-14T11:56:24.327Z,11.02
2023-02-14T11:59:03.779Z,11.01
2023-02-14T12:01:33.918Z,11.17
2023-02-14T12:04:02.155Z,11.13
2023-02-14T12:06:32.478Z,11.06
2023-02-14T12:09:35.173Z,11.04
2023-02-14T12:12:05.020Z,11.26
2023-02-14T12:14:34.464Z,11.37
2023-02-14T12:17:05.818Z,11.47
2023-02-14T12:19:41.167Z,11.46
2023-02-14T12:22:13.298Z,11.45
2023-02-14T12:25:07.576Z,11.67
2023-02-14T12:27:48.459Z,11.73
2023-02-14T12:30:21.367Z,11.88
2023-02-14T12:32:51.312Z,12.17
2023-02-14T12:35:25.815Z,12.16
2023-02-14T12:38:19.346Z,11.79
2023-02-14T12:41:11.882Z,11.62
2023-02-14T12:43:50.875Z,11.61
2023-02-14T12:46:37.079Z,11.87
2023-02-14T12:49:36.369Z,12.01
2023-02-14T12:52:25.475Z,11.90
2023-02-14T12:54:55.762Z,11.75
2023-02-14T12:57:48.076Z,11.77
2023-02-14T13:00:33.997Z,11.72
2023-02-14T13:03:14.679Z,11.94
2023-02-14T13:05:48.250Z,12.17
2023-02-14T13:08:49.374Z,12.44
2023-02-14T13:11:41.054Z,12.56
2023-02-14T13:14:29.616Z,12.36
2023-02-14T13:17:00.860Z,12.59
2023-02-14T13:19:31.228Z,12.49
2023-02-14T13:21:59.906Z,12.42
2023-02-14T13:24:36.813Z,12.28
2023-02-14T13:27:07.415Z,12.43
2023-02-14T13:29:43.275Z,12.76
2023-02-14T13:32:13.305Z,12.98
2023-02-14T13:34:45.047Z,12.94
2023-02-14T13:37:16.016Z,12.94
2023-02-14T13:39:47.229Z,12.82
2023-02-14T13:42:52.642Z,12.85
2023-02-14T13:45:35.303Z,13.00
2023-02-14T13:48:11.122Z,12.89
2023-02-14T13:51:05.626Z,13.13
2023-02-14T13:53:40.200Z,13.05
2023-02-14T13:56:15.336Z,13.03
2023-02-14T13:58:51.127Z,13.08
2023-02-14T14:01:42.922Z,13.29
2023-02-14T14:04:28.826Z,13.40
2023-02-14T14:07:05.347Z,13.31
2023-02-14T14:09:42.004Z,13.12
2023-02-14T14:12:25.585Z,12.97
2023-02-14T14:15:05.767Z,13.23
2023-02-14T14:17:39.419Z,13.34
2023-02-14T14:20:15.781Z,13.36
2023-02-14T14:22:53.733Z,13.67
2023-02-14T14:25:41.118Z,13.48
2023-02-14T14:28:13.350Z,13.35
2023-02-14T14:30:44.747Z,13.65
2023-02-14T14:33:25.979Z,13.81
2023-02-14T14:36:08.467Z,13.80
2023-02-14T14:38:47.189Z,14.04
2023-02-14T14:41:14.591Z,13.99
2023-02-14T14:43:42.352Z,13.83
2023-02-14T14:46:12.645Z,13.76
2023-02-14T14:48:40.491Z,13.44
2023-02-14T14:51:09.868Z,13.59
2023-02-14T14:53:44.541Z,13.88
2023-02-14T14:56:14.356Z,13.44
2023-02-14T14:58:42.111Z,13.39
2023-02-14T15:01:36.436Z,13.27
2023-02-14T15:04:17.262Z,13.53
2023-02-14T15:06:45.437Z,13.65
2023-02-14T15:09:45.079Z,13.69
2023-02-14T15:12:39.971Z,13.75
2023-02-14T15:15:10.119Z,13.61
2023-02-14T15:17:37.795Z,13.62
2023-02-14T15:20:08.402Z,13.39
2023-02-14T15:22:45.613Z,13.51
2023-02-14T15:25:21.226Z,13.62
2023-02-14T15:27:48.711Z,13.62
2023-02-14T15:30:19.414Z,13.75
2023-02-14T15:32:48.262Z,13.31
2023-02-14T15:35:17.579Z,13.57
2023-02-14T15:37:46.039Z,13.65
2023-02-14T15:40:25.090Z,13.70
2023-02-14T15:42:59.052Z,13.85
2023-02-14T15:45:27.687Z,13.91
2023-02-14T15:47:57.896Z,13.64
2023-02-14T15:50:27.979Z,13.89
2023-02-14T15:53:27.896Z,13.70
2023-02-14T15:56:05.791Z,13.80
2023-02-14T15:58:33.649Z,13.54
2023-02-14T16:01:01.495Z,13.61
2023-02-14T16:03:37.054Z,13.60
2023-02-14T16:06:07.483Z,13.80
2023-02-14T16:08:37.341Z,13.86
2023-02-14T16:11:07.159Z,13.85
2023-02-14T16:13:36.803Z,13.89
2023-02-14T16:16:06.741Z,13.91
2023-02-14T16:18:48.198Z,13.94
2023-02-14T16:21:33.240Z,13.93
2023-02-14T16:24:09.361Z,13.65
2023-02-14T16:26:39.318Z,13.96
2023-02-14T16:29:08.500Z,13.95
2023-02-14T16:32:15.195Z,14.06
2023-02-14T16:34:42.258Z,14.00
2023-02-14T16:37:19.509Z,14.11
2023-02-14T16:39:47.117Z,14.17
2023-02-14T16:42:17.008Z,13.95
2023-02-14T16:44:45.769Z,14.18
2023-02-14T16:47:14.020Z,13.82
2023-02-14T16:49:41.984Z,14.07
2023-02-14T16:52:35.535Z,13.98
2023-02-14T16:55:02.820Z,13.94
2023-02-14T16:57:33.397Z,13.75
2023-02-14T17:00:01.363Z,13.93
2023-02-14T17:02:28.846Z,13.94
2023-02-14T17:04:56.506Z,13.89
2023-02-14T17:07:23.905Z,13.62
2023-02-14T17:09:55.538Z,13.62
2023-02-14T17:12:25.634Z,14.01
2023-02-14T17:14:55.732Z,14.03
2023-02-14T17:17:22.965Z,13.79
2023-02-14T17:19:52.654Z,13.87
2023-02-14T17:22:20.671Z,13.58
2023-02-14T17:24:48.144Z,13.57
2023-02-14T17:27:15.587Z,13.65
2023-02-14T17:29:42.888Z,13.49
2023-02-14T17:32:14.088Z,13.60
2023-02-14T17:34:41.709Z,13.52
2023-02-14T17:37:09.098Z,13.53
2023-02-14T17:39:36.444Z,13.46
2023-02-14T17:42:03.865Z,13.50
2023-02-14T17:44:36.011Z,13.40
2023-02-14T17:47:04.917Z,13.33
2023-02-14T17:49:32.470Z,13.53
2023-02-14T17:51:59.749Z,13.51
2023-02-14T17:54:26.984Z,13.40
2023-02-14T17:56:54.595Z,13.39
2023-02-14T17:59:21.979Z,13.29
2023-02-14T18:01:50.131Z,13.42
2023-02-14T18:04:17.432Z,13.46
2023-02-14T18:06:44.834Z,13.44
2023-02-14T18:09:12.166Z,13.36
2023-02-14T18:11:40.414Z,13.28
2023-02-14T18:14:08.370Z,13.27
2023-02-14T18:16:38.038Z,13.18
2023-02-14T18:19:06.844Z,13.24
2023-02-14T18:21:36.041Z,13.24
2023-02-14T18:24:04.025Z,13.27
2023-02-14T18:26:31.551Z,13.09
2023-02-14T18:28:59.341Z,13.20
2023-02-14T18:31:26.787Z,13.17
2023-02-14T18:33:55.096Z,13.14
2023-02-14T18:36:24.349Z,12.94
2023-02-14T18:38:52.040Z,12.95
2023-02-14T18:41:19.828Z,12.99
2023-02-14T18:43:48.929Z,12.79
2023-02-14T18:46:27.476Z,12.65
2023-02-14T18:48:56.241Z,12.62
2023-02-14T18:51:30.062Z,12.52
2023-02-14T18:53:59.558Z,12.42
2023-02-14T18:56:29.915Z,12.40
2023-02-14T18:59:02.515Z,12.48
2023-02-14T19:01:36.838Z,12.12
2023-02-14T19:04:07.763Z,12.03
2023-02-14T19:06:35.942Z,12.11
2023-02-14T19:09:04.100Z,12.02
2023-02-14T19:11:31.791Z,12.20
2023-02-14T19:14:00.310Z,12.16
2023-02-14T19:16:32.414Z,12.13
2023-02-14T19:19:02.513Z,11.87
2023-02-14T19:21:31.321Z,11.93
2023-02-14T19:23:58.933Z,11.92
2023-02-14T19:26:29.625Z,11.87
2023-02-14T19:28:59.480Z,11.81
2023-02-14T19:31:27.991Z,11.71
2023-02-14T19:33:55.558Z,11.86
2023-02-14T19:36:23.600Z,11.89
2023-02-14T19:38:52.895Z,11.88
2023-02-14T19:41:26.148Z,11.91
2023-02-14T19:43:56.251Z,11.90
2023-02-14T19:46:24.413Z,12.04
2023-02-14T19:48:52.292Z,12.11
2023-02-14T19:51:25.804Z,11.79
2023-02-14T19:53:55.467Z,11.66
2023-02-14T19:56:25.205Z,11.52
2023-02-14T19:58:53.098Z,11.45
2023-02-14T20:01:26.169Z,11.65
2023-02-14T20:03:53.632Z,11.63
2023-02-14T20:06:22.185Z,11.74
2023-02-14T20:08:50.011Z,11.60
2023-02-14T20:11:36.340Z,11.53
2023-02-14T20:14:04.860Z,11.58
2023-02-14T20:16:33.888Z,11.50
2023-02-14T20:19:07.945Z,11.67
2023-02-14T20:21:37.953Z,11.87
2023-02-14T20:24:06.185Z,11.91
2023-02-14T20:26:35.016Z,11.95
2023-02-14T20:29:04.208Z,11.78
2023-02-14T20:31:33.209Z,11.67
2023-02-14T20:34:00.987Z,11.80
2023-02-14T20:36:28.971Z,11.90
2023-02-14T20:38:57.192Z,11.89
2023-02-14T20:41:26.157Z,11.87
2023-02-14T20:43:56.571Z,11.66
2023-02-14T20:46:27.112Z,11.72
2023-02-14T20:48:54.551Z,11.76
2023-02-14T20:51:22.842Z,11.52
2023-02-14T20:53:51.198Z,11.65
2023-02-14T20:56:19.197Z,11.58
2023-02-14T20:58:46.580Z,11.59
2023-02-14T21:01:16.484Z,11.53
2023-02-14T21:03:50.420Z,11.43
2023-02-14T21:06:19.680Z,11.25
2023-02-14T21:08:49.503Z,11.19
2023-02-14T21:11:18.529Z,11.21
2023-02-14T21:13:46.432Z,11.14
2023-02-14T21:16:16.008Z,11.28
2023-02-14T21:18:47.982Z,11.12
2023-02-14T21:21:19.134Z,11.15
2023-02-14T21:23:50.289Z,11.16
2023-02-14T21:26:17.912Z,11.11
2023-02-14T21:28:45.492Z,10.96
2023-02-14T21:31:15.882Z,11.02
2023-02-14T21:33:43.381Z,10.75
2023-02-14T21:36:15.818Z,10.83
2023-02-14T21:38:44.012Z,10.76
2023-02-14T21:41:17.595Z,10.78
2023-02-14T21:43:46.446Z,10.71
2023-02-14T21:46:16.323Z,10.68
2023-02-14T21:49:02.798Z,10.52
2023-02-14T21:51:31.348Z,10.41
2023-02-14T21:54:01.659Z,10.61
2023-02-14T21:56:29.063Z,10.40
2023-02-14T21:58:56.793Z,10.39
2023-02-14T22:01:26.425Z,10.23
2023-02-14T22:03:54.417Z,10.16
2023-02-14T22:06:22.335Z,10.37
2023-02-14T22:08:54.314Z,10.64
2023-02-14T22:11:22.322Z,10.38
2023-02-14T22:13:49.735Z,10.37
2023-02-14T22:16:18.996Z,10.44
2023-02-14T22:18:47.963Z,10.53
2023-02-14T22:21:24.194Z,10.46
2023-02-14T22:23:51.825Z,10.41
2023-02-14T22:26:19.112Z,10.15
2023-02-14T22:28:47.912Z,10.06
2023-02-14T22:31:17.254Z,9.90
2023-02-14T22:33:45.131Z,9.86
2023-02-14T22:36:12.793Z,9.78
2023-02-14T22:38:40.655Z,9.90
2023-02-14T22:41:12.188Z,9.76
2023-02-14T22:43:40.094Z,9.70
2023-02-14T22:46:09.827Z,9.66
2023-02-14T22:48:38.126Z,9.55
2023-02-14T22:51:08.504Z,9.56
2023-02-14T22:53:36.000Z,9.49
2023-02-14T22:56:20.727Z,9.60
2023-02-14T22:58:48.591Z,9.55
2023-02-14T23:01:17.519Z,9.50
2023-02-14T23:03:45.471Z,9.37
2023-02-14T23:06:13.729Z,9.26
2023-02-14T23:08:43.005Z,9.32
2023-02-14T23:11:12.830Z,9.25
2023-02-14T23:13:59.272Z,9.23
2023-02-14T23:16:46.006Z,9.17
2023-02-14T23:19:34.080Z,9.22
2023-02-14T23:22:05.168Z,9.16
2023-02-14T23:24:32.525Z,8.95
2023-02-14T23:27:00.099Z,8.83
2023-02-14T23:29:27.452Z,8.56
2023-02-14T23:31:55.307Z,8.69
2023-02-14T23:34:26.629Z,8.69
2023-02-14T23:36:53.969Z,8.94
2023-02-14T23:39:21.336Z,8.74
2023-02-14T23:41:48.686Z,8.82
2023-02-14T23:44:19.877Z,8.71
2023-02-14T23:46:49.097Z,8.75
2023-02-14T23:49:17.028Z,8.81
2023-02-14T23:51:45.725Z,8.79
2023-02-14T23:54:13.586Z,8.80
2023-02-14T23:56:41.179Z,8.82
2023-02-14T23:59:09.345Z,8.65
